Aeroporto :
LOGIN :

Iscrizione | Disclaimer

   EN    FR    IT 

 










Sommario :    VFR   VFR Marginale   IFR   IFR Intensivo   IFR Molto Intensivo
Visibilità : 
Base nubi : 
>= 8 km
>= 3000ft
5 / 8 km
1000 / 3000 ft
1500m / 5 km
500 / 1000 ft
800 / 1500m
200 / 500 ft
< 800m
< 200 ft
Simboli :   Temporali  Nebbia  Neve Forte  Precipitazioni Forti  Vento > 20 kt
SIGMETs :   Varie  Temporali  Ghiacco  Turbolenza  Onda orograficha  Ceneri Vulcaniche






- Altitudine del aeroporto : 459 ft
- Codice IATA : CER


LFRC - Cherbourg / Maupertus

ULTIMO METAR :
  • 021200Z AUTO 04011KT 010V070 9999 BKN018 BKN027 BKN038 08/05 Q1022 TEMPO 4000 -SHRA BKN012

METARs OBSOLETI :
  • 021130Z AUTO 04011KT 360V070 9999 BKN017 BKN024 OVC040 08/06 Q1022 TEMPO 4000 -SHRA BKN012 BECMG 05015G30KT
  • 021100Z AUTO 03007KT 9999 BKN019 BKN027 OVC034 07/06 Q1023 TEMPO 4000 -SHRA BKN012
  • 021030Z AUTO VRB02KT 9000 FEW020 OVC035 07/05 Q1023 TEMPO 4000 -SHRA BKN012
  • 021000Z AUTO VRB01KT 8000 -RA FEW017 SCT022 OVC029 06/04 Q1023 TEMPO 4000 -SHRA BKN012
  • 020930Z AUTO 00000KT 9999 BKN023 BKN030 BKN037 06/04 Q1023 TEMPO 4000 -SHRA BKN012 BECMG 04010KT
  • 020900Z AUTO 10003KT 9999 -DZ SCT021 BKN026 OVC039 06/04 Q1023 TEMPO 4000 -SHRA BKN012 BECMG 04010KT

TAF TAF LFRC
Valido dal 02 a 12 ore il 02 a 21 ore UTC


021100Z 0212/0221 06012KT 9999 SCT015 BKN035
TEMPO 0212/0221 4000 -SHRA BKN012
BECMG 0214/0216 05015G30KT



MetMap, La meteo Aeronautica in un colpo d'occhio ! - Copyright ORBIFLY Dicembre 2007 - Disclaimer

ORBIFLY MET'MAP TEAM :

Programmazione e sviluppo : Alexandra Zaïnal
Concezione : Baudouin d'Aumeries
Supporto tecnico e logistico : Manuel Goepfert
Aiuto : Marc-Olivier Méhu
Aiuto per la traduzione : Arnaldo La Scala




FONTI E CREDITI :

   NOAA